Time;durP1;ratioP1;P1;durP2;ratioP2;P2;SDS_P1;SDS_P2;PMS_P1;PMS_P2;Temp;Humidity;BMP_temperature;BMP_pressure;BME280_temperature;BME280_humidity;BME280_pressure;Samples;Min_cycle;Max_cycle;Signal;HPM_P1;HPM_P2
2021/01/06 00:01:20;;;;;;;14.17;7.40;;;1.90;99.90;;;;;;4365127;32;20571;-71
2021/01/06 00:03:48;;;;;;;13.23;7.87;;;1.90;99.90;;;;;;4366146;32;20147;-69
2021/01/06 00:06:16;;;;;;;13.57;7.47;;;1.90;99.90;;;;;;4366222;32;20140;-69
2021/01/06 00:08:44;;;;;;;13.27;8.20;;;1.90;99.90;;;;;;4366131;32;20458;-69
2021/01/06 00:11:11;;;;;;;13.90;7.80;;;1.90;99.90;;;;;;4367578;32;20178;-70
2021/01/06 00:13:38;;;;;;;12.80;7.90;;;1.90;99.90;;;;;;4366096;32;20412;-70
2021/01/06 00:16:04;;;;;;;14.47;8.43;;;1.90;99.90;;;;;;4366038;32;20136;-70
2021/01/06 00:18:31;;;;;;;13.67;7.73;;;1.90;99.90;;;;;;4366866;32;20152;-70
2021/01/06 00:20:58;;;;;;;12.90;7.60;;;1.90;99.90;;;;;;4366214;32;20144;-70
2021/01/06 00:23:24;;;;;;;14.03;7.93;;;1.90;99.90;;;;;;4366275;32;20508;-69
2021/01/06 00:25:51;;;;;;;13.70;7.73;;;2.00;99.90;;;;;;4365990;32;20159;-70
2021/01/06 00:28:20;;;;;;;13.20;7.37;;;1.90;99.90;;;;;;4366890;32;20136;-70
2021/01/06 00:30:49;;;;;;;11.97;7.50;;;2.00;99.90;;;;;;4367031;32;20136;-70
2021/01/06 00:33:22;;;;;;;13.40;7.20;;;1.90;99.90;;;;;;4365837;32;20182;-70
2021/01/06 00:35:58;;;;;;;12.20;7.20;;;1.90;99.90;;;;;;4366908;32;20223;-70
2021/01/06 00:38:29;;;;;;;12.50;7.77;;;1.90;99.90;;;;;;4367273;32;20136;-69
2021/01/06 00:40:56;;;;;;;13.07;7.80;;;1.90;99.90;;;;;;4365818;32;20459;-70
2021/01/06 00:43:23;;;;;;;12.40;7.23;;;2.00;99.90;;;;;;4367089;32;20144;-69
2021/01/06 00:45:49;;;;;;;14.33;7.73;;;1.90;99.90;;;;;;4367089;32;20198;-69
2021/01/06 00:48:16;;;;;;;14.27;7.53;;;1.90;99.90;;;;;;4367048;32;20140;-69
2021/01/06 00:50:43;;;;;;;12.63;7.20;;;2.00;99.90;;;;;;4367060;32;20149;-70
2021/01/06 00:53:16;;;;;;;13.43;7.30;;;1.90;99.90;;;;;;4365512;32;20466;-69
2021/01/06 00:55:44;;;;;;;13.17;7.67;;;2.00;99.90;;;;;;4366890;32;20196;-69
2021/01/06 00:58:11;;;;;;;11.13;6.93;;;2.00;99.90;;;;;;4366957;32;20215;-70
2021/01/06 01:00:38;;;;;;;11.93;7.40;;;2.00;99.90;;;;;;4365407;32;20145;-71
2021/01/06 01:03:04;;;;;;;13.87;7.50;;;2.00;99.90;;;;;;4365914;32;20332;-69
2021/01/06 01:05:32;;;;;;;12.80;7.33;;;2.00;99.90;;;;;;4365213;32;20170;-69
2021/01/06 01:07:59;;;;;;;13.73;7.73;;;2.00;99.90;;;;;;4365116;32;20200;-70
2021/01/06 01:10:31;;;;;;;12.97;7.43;;;1.90;99.90;;;;;;4364704;32;20188;-70
2021/01/06 01:13:00;;;;;;;12.83;7.53;;;1.90;99.90;;;;;;4365123;32;20195;-70
2021/01/06 01:15:31;;;;;;;11.60;7.10;;;1.90;99.90;;;;;;4366664;32;20513;-69
2021/01/06 01:17:58;;;;;;;12.93;7.33;;;1.90;99.90;;;;;;4366193;32;20191;-69
2021/01/06 01:20:25;;;;;;;12.27;6.97;;;1.80;99.90;;;;;;4365220;32;20156;-69
2021/01/06 01:22:51;;;;;;;14.10;7.60;;;1.90;99.90;;;;;;4365231;32;20155;-69
2021/01/06 01:25:24;;;;;;;12.30;7.17;;;1.90;99.90;;;;;;4366528;32;20144;-70
2021/01/06 01:27:51;;;;;;;13.47;7.50;;;1.90;99.90;;;;;;4365501;32;20186;-69
2021/01/06 01:30:24;;;;;;;15.10;7.90;;;1.90;99.90;;;;;;4365064;32;20144;-69
2021/01/06 01:32:51;;;;;;;12.23;7.27;;;2.00;99.90;;;;;;4366251;32;20421;-69
2021/01/06 01:35:25;;;;;;;13.93;7.63;;;2.00;99.90;;;;;;4366676;32;20198;-69
2021/01/06 01:37:52;;;;;;;12.27;7.40;;;2.00;99.90;;;;;;4366405;32;20467;-69
2021/01/06 01:40:35;;;;;;;13.40;7.63;;;2.00;99.90;;;;;;4366285;32;20190;-70
2021/01/06 01:43:05;;;;;;;11.77;7.20;;;2.00;99.90;;;;;;4366591;32;20170;-70
2021/01/06 01:45:50;;;;;;;13.30;7.57;;;2.00;99.90;;;;;;4365809;32;20152;-69
2021/01/06 01:48:26;;;;;;;12.67;7.57;;;2.00;99.90;;;;;;4364256;32;20408;-70
2021/01/06 01:50:56;;;;;;;14.13;7.60;;;2.00;99.90;;;;;;4366236;32;20199;-69
2021/01/06 01:53:30;;;;;;;12.77;7.57;;;2.00;99.90;;;;;;4364563;32;20155;-70
2021/01/06 01:55:58;;;;;;;12.90;7.57;;;2.00;99.90;;;;;;4364733;32;20422;-69
2021/01/06 01:58:27;;;;;;;14.70;8.13;;;2.00;99.90;;;;;;4364683;32;20163;-69
2021/01/06 02:00:55;;;;;;;13.77;7.60;;;2.00;99.90;;;;;;4364624;32;20132;-69
2021/01/06 02:03:30;;;;;;;13.10;7.67;;;2.00;99.90;;;;;;4351144;33;20207;-69
2021/01/06 02:06:07;;;;;;;14.73;7.83;;;2.10;99.90;;;;;;4361370;32;20239;-69
2021/01/06 02:08:41;;;;;;;12.67;7.30;;;2.10;99.90;;;;;;4356558;32;20203;-69
2021/01/06 02:11:16;;;;;;;15.60;7.97;;;2.10;99.90;;;;;;4358210;32;20152;-68
2021/01/06 02:13:50;;;;;;;13.93;8.13;;;2.10;99.90;;;;;;4349613;33;20226;-68
2021/01/06 02:16:45;;;;;;;12.67;7.60;;;2.10;99.90;;;;;;4349666;33;20165;-66
2021/01/06 02:19:13;;;;;;;13.27;7.97;;;2.10;99.90;;;;;;4359776;32;20266;-68
2021/01/06 02:21:39;;;;;;;16.80;8.77;;;2.10;99.90;;;;;;4363705;32;20239;-69
2021/01/06 02:24:06;;;;;;;15.47;8.43;;;2.10;99.90;;;;;;4364447;32;20144;-69
2021/01/06 02:26:33;;;;;;;16.80;9.20;;;2.00;99.90;;;;;;4371708;32;20572;-69
2021/01/06 02:29:00;;;;;;;18.50;9.37;;;2.10;99.90;;;;;;4370994;32;20277;-69
2021/01/06 02:32:00;;;;;;;15.73;8.50;;;2.10;99.90;;;;;;4364633;32;20210;-72
2021/01/06 02:34:43;;;;;;;17.17;9.53;;;2.10;99.90;;;;;;4348156;33;20164;-68
2021/01/06 02:37:10;;;;;;;18.03;9.30;;;2.00;99.90;;;;;;4364033;32;20205;-69
2021/01/06 02:39:37;;;;;;;18.97;10.10;;;2.00;99.90;;;;;;4363055;32;20254;-69
2021/01/06 02:42:05;;;;;;;19.50;10.07;;;2.10;99.90;;;;;;4363574;32;20165;-69
2021/01/06 02:44:32;;;;;;;19.47;10.47;;;2.00;99.90;;;;;;4363939;32;20163;-69
2021/01/06 02:46:59;;;;;;;20.60;10.70;;;2.00;99.90;;;;;;4363714;32;20417;-68
2021/01/06 02:49:26;;;;;;;21.40;11.60;;;2.00;99.90;;;;;;4364025;33;20145;-69
2021/01/06 02:52:11;;;;;;;22.80;11.60;;;2.00;99.90;;;;;;4364647;33;20179;-69
2021/01/06 02:54:40;;;;;;;21.17;11.43;;;2.00;99.90;;;;;;4364077;33;20148;-69
2021/01/06 02:57:07;;;;;;;24.23;11.87;;;2.00;99.90;;;;;;4363860;33;20443;-69
2021/01/06 02:59:46;;;;;;;18.43;11.07;;;2.00;99.90;;;;;;4365100;32;20232;-69
2021/01/06 03:02:15;;;;;;;22.53;11.47;;;2.00;99.90;;;;;;4375748;32;20156;-70
2021/01/06 03:04:47;;;;;;;22.73;10.97;;;1.90;99.90;;;;;;4364763;33;20219;-69
2021/01/06 03:07:15;;;;;;;21.77;11.57;;;2.00;99.90;;;;;;4365355;33;20396;-69
2021/01/06 03:09:43;;;;;;;24.17;12.10;;;2.00;99.90;;;;;;4362085;32;20180;-69
2021/01/06 03:12:16;;;;;;;21.30;11.37;;;2.10;99.90;;;;;;4356435;33;20183;-69
2021/01/06 03:14:43;;;;;;;23.73;11.97;;;2.00;99.90;;;;;;4364489;33;20449;-69
2021/01/06 03:17:12;;;;;;;24.43;12.27;;;2.10;99.90;;;;;;4365409;33;20198;-70
2021/01/06 03:19:45;;;;;;;23.43;12.00;;;2.10;99.90;;;;;;4367253;32;20225;-68
2021/01/06 03:22:16;;;;;;;22.63;12.37;;;2.10;99.90;;;;;;4351687;32;20210;-69
2021/01/06 03:24:53;;;;;;;22.03;11.87;;;2.20;99.90;;;;;;4375701;32;20151;-69
2021/01/06 03:27:21;;;;;;;25.40;13.03;;;2.20;99.90;;;;;;4379213;32;20186;-69
2021/01/06 03:29:48;;;;;;;21.27;11.40;;;2.20;99.90;;;;;;4378764;32;20200;-69
2021/01/06 03:32:48;;;;;;;26.40;13.00;;;2.20;99.90;;;;;;4378943;32;20207;-70
2021/01/06 03:35:26;;;;;;;26.33;13.17;;;2.10;99.90;;;;;;4380444;32;20222;-70
2021/01/06 03:37:57;;;;;;;25.17;12.83;;;2.00;99.90;;;;;;4382879;32;20174;-69
2021/01/06 03:40:32;;;;;;;28.27;13.17;;;2.10;99.90;;;;;;4381297;32;20390;-70
2021/01/06 03:42:59;;;;;;;27.73;13.70;;;2.20;99.90;;;;;;4382879;32;20202;-69
2021/01/06 03:45:29;;;;;;;26.77;13.23;;;2.20;99.90;;;;;;4381000;32;20147;-70
2021/01/06 03:48:04;;;;;;;24.90;12.80;;;2.20;99.90;;;;;;4382437;32;20393;-69
2021/01/06 03:50:45;;;;;;;24.57;13.27;;;2.30;99.90;;;;;;4373112;32;20147;-69
2021/01/06 03:53:30;;;;;;;24.13;13.17;;;2.20;99.90;;;;;;4357866;32;20187;-69
2021/01/06 03:56:10;;;;;;;25.23;12.93;;;2.20;99.90;;;;;;4353246;33;20167;-69
2021/01/06 03:58:55;;;;;;;26.50;12.97;;;2.30;99.90;;;;;;4351633;33;20144;-70
2021/01/06 04:01:44;;;;;;;26.07;13.40;;;2.20;99.90;;;;;;4352393;33;20439;-70
2021/01/06 04:04:26;;;;;;;24.43;13.30;;;2.20;99.90;;;;;;4352402;33;20171;-69
2021/01/06 04:06:54;;;;;;;24.80;12.87;;;2.20;99.90;;;;;;4351488;33;20195;-70
2021/01/06 04:09:42;;;;;;;27.90;13.17;;;2.30;99.90;;;;;;4352832;33;20164;-69
2021/01/06 04:12:16;;;;;;;26.53;13.57;;;2.20;99.90;;;;;;4352617;33;20449;-70
2021/01/06 04:14:43;;;;;;;25.40;13.37;;;2.30;99.90;;;;;;4352806;33;20228;-70
2021/01/06 04:17:40;;;;;;;26.60;13.13;;;2.30;99.90;;;;;;4351327;33;20506;-69
2021/01/06 04:20:28;;;;;;;24.87;13.00;;;2.20;99.90;;;;;;4354115;33;20164;-71
2021/01/06 04:22:57;;;;;;;27.83;13.30;;;2.20;99.90;;;;;;4354539;32;20190;-71
2021/01/06 04:25:31;;;;;;;29.80;13.90;;;2.20;99.90;;;;;;4352579;33;20152;-69
2021/01/06 04:28:07;;;;;;;27.53;13.30;;;2.20;99.90;;;;;;4350204;33;20443;-69
2021/01/06 04:30:38;;;;;;;28.77;13.80;;;2.20;99.90;;;;;;4350092;33;20198;-69
2021/01/06 04:33:09;;;;;;;28.30;13.57;;;2.10;99.90;;;;;;4351612;33;20375;-70
2021/01/06 04:35:35;;;;;;;30.33;14.83;;;2.00;99.90;;;;;;4356145;33;20168;-69
2021/01/06 04:38:02;;;;;;;32.20;14.87;;;2.00;99.90;;;;;;4365288;32;20564;-70
2021/01/06 04:40:36;;;;;;;28.33;13.87;;;2.00;99.90;;;;;;4367119;32;20186;-68
2021/01/06 04:43:30;;;;;;;30.10;13.77;;;2.00;99.90;;;;;;4371639;32;20206;-69
2021/01/06 04:46:45;;;;;;;31.10;14.20;;;2.10;99.90;;;;;;4336934;33;20605;-70
2021/01/06 04:49:23;;;;;;;26.77;13.20;;;2.10;99.90;;;;;;4346128;33;20164;-70
2021/01/06 04:52:01;;;;;;;30.60;14.53;;;2.20;99.90;;;;;;4327324;33;20188;-70
2021/01/06 04:54:55;;;;;;;31.20;15.30;;;2.30;99.90;;;;;;4320177;33;20168;-72
2021/01/06 04:57:30;;;;;;;28.00;14.20;;;2.40;99.90;;;;;;4319457;33;20192;-72
2021/01/06 05:00:28;;;;;;;32.40;14.17;;;2.40;99.90;;;;;;4321943;33;20144;-74
2021/01/06 05:03:08;;;;;;;28.80;13.53;;;2.40;99.90;;;;;;4314304;33;20172;-73
2021/01/06 05:05:54;;;;;;;29.80;13.97;;;2.40;99.90;;;;;;4340740;33;20523;-73
2021/01/06 05:08:31;;;;;;;29.30;14.33;;;2.30;99.90;;;;;;4335059;33;20217;-71
2021/01/06 05:11:31;;;;;;;29.80;14.63;;;2.30;99.90;;;;;;4338458;33;20153;-70
2021/01/06 05:14:05;;;;;;;32.03;14.87;;;2.20;99.90;;;;;;4334946;33;20236;-70
2021/01/06 05:16:47;;;;;;;31.03;14.10;;;2.30;99.90;;;;;;4341165;33;20159;-71
2021/01/06 05:19:18;;;;;;;29.90;14.33;;;2.30;99.90;;;;;;4340754;33;20153;-70
2021/01/06 05:21:44;;;;;;;29.97;14.83;;;2.30;99.90;;;;;;4334992;33;20160;-71
2021/01/06 05:24:33;;;;;;;29.30;14.50;;;2.40;99.90;;;;;;4358332;33;20160;-70
2021/01/06 05:27:13;;;;;;;29.87;13.87;;;2.30;99.90;;;;;;4353977;32;20262;-70
2021/01/06 05:30:00;;;;;;;31.70;15.27;;;2.30;99.90;;;;;;4364866;32;20226;-72
2021/01/06 05:32:32;;;;;;;31.20;14.73;;;2.20;99.90;;;;;;4352735;33;20163;-71
2021/01/06 05:35:05;;;;;;;28.93;14.77;;;2.20;99.90;;;;;;4366044;32;20171;-70
2021/01/06 05:37:37;;;;;;;28.53;14.17;;;2.30;99.90;;;;;;4365693;32;20159;-70
2021/01/06 05:40:10;;;;;;;31.27;14.93;;;2.30;99.90;;;;;;4363522;32;20175;-70
2021/01/06 05:42:48;;;;;;;27.87;14.20;;;2.30;99.90;;;;;;4365040;32;20144;-71
2021/01/06 05:45:17;;;;;;;27.27;14.53;;;2.30;99.90;;;;;;4366578;32;20151;-70
2021/01/06 05:47:53;;;;;;;28.93;14.23;;;2.30;99.90;;;;;;4365642;32;20149;-70
2021/01/06 05:50:29;;;;;;;28.47;13.90;;;2.40;99.90;;;;;;4366450;32;20151;-70
2021/01/06 05:53:12;;;;;;;31.37;13.80;;;2.30;99.90;;;;;;4364785;32;20155;-70
2021/01/06 05:55:44;;;;;;;25.27;13.47;;;2.30;99.90;;;;;;4364986;32;20152;-70
2021/01/06 05:58:29;;;;;;;28.00;13.40;;;2.30;99.90;;;;;;4365394;32;20512;-71
2021/01/06 06:01:16;;;;;;;28.30;12.90;;;2.40;99.90;;;;;;4364594;32;20140;-71
2021/01/06 06:03:54;;;;;;;27.57;13.00;;;2.40;99.90;;;;;;4364572;32;20135;-71
2021/01/06 06:06:41;;;;;;;25.80;13.33;;;2.30;99.90;;;;;;4365979;32;20140;-70
2021/01/06 06:09:43;;;;;;;28.77;13.77;;;2.40;99.90;;;;;;4365738;32;20156;-70
2021/01/06 06:12:27;;;;;;;25.83;12.53;;;2.30;99.90;;;;;;4364359;32;20223;-70
2021/01/06 06:15:06;;;;;;;26.40;12.63;;;2.30;99.90;;;;;;4361379;32;20953;-69
2021/01/06 06:18:09;;;;;;;28.00;13.13;;;2.30;99.90;;;;;;4359668;32;20152;-70
2021/01/06 06:20:59;;;;;;;26.30;12.83;;;2.30;99.90;;;;;;4365092;32;20174;-69
2021/01/06 06:23:48;;;;;;;26.47;12.47;;;2.40;99.90;;;;;;4366898;32;20475;-70
2021/01/06 06:26:33;;;;;;;24.93;12.47;;;2.40;99.90;;;;;;4356223;32;20165;-70
2021/01/06 06:29:14;;;;;;;26.07;12.33;;;2.50;99.90;;;;;;4363595;32;20446;-69
2021/01/06 06:31:49;;;;;;;27.27;12.73;;;2.40;99.90;;;;;;4365716;32;20140;-69
2021/01/06 06:34:31;;;;;;;26.07;12.70;;;2.50;99.90;;;;;;4363313;32;20151;-70
2021/01/06 06:37:13;;;;;;;24.53;12.00;;;2.40;99.90;;;;;;4367247;32;20202;-69
2021/01/06 06:40:03;;;;;;;25.27;12.77;;;2.40;99.90;;;;;;4363953;32;20183;-70
2021/01/06 06:43:00;;;;;;;25.27;12.67;;;2.40;99.90;;;;;;4364480;32;20468;-69
2021/01/06 06:45:42;;;;;;;25.47;11.80;;;2.40;99.90;;;;;;4351602;33;20226;-69
2021/01/06 06:48:22;;;;;;;27.30;13.00;;;2.40;99.90;;;;;;4367344;32;20148;-70
2021/01/06 06:51:14;;;;;;;27.00;12.93;;;2.40;99.90;;;;;;4365355;32;20213;-70
2021/01/06 06:53:59;;;;;;;24.13;12.07;;;2.30;99.90;;;;;;4354758;33;20144;-71
2021/01/06 06:56:38;;;;;;;21.20;12.03;;;2.40;99.90;;;;;;4364609;32;20211;-72
2021/01/06 06:59:21;;;;;;;27.87;12.77;;;2.30;99.90;;;;;;4367185;32;20204;-71
2021/01/06 07:01:48;;;;;;;28.13;12.53;;;2.20;99.90;;;;;;4373505;32;20156;-71
2021/01/06 07:04:31;;;;;;;26.10;12.77;;;2.10;99.90;;;;;;4363900;33;20157;-71
2021/01/06 07:07:00;;;;;;;26.13;12.47;;;2.10;99.90;;;;;;4365008;33;20144;-70
2021/01/06 07:09:36;;;;;;;26.83;13.10;;;2.20;99.90;;;;;;4365429;32;20143;-70
2021/01/06 07:12:09;;;;;;;28.67;13.80;;;2.30;99.90;;;;;;4368469;32;20482;-71
2021/01/06 07:14:39;;;;;;;26.40;11.93;;;2.30;99.90;;;;;;4368306;32;20148;-71
2021/01/06 07:17:12;;;;;;;27.73;12.83;;;2.30;99.90;;;;;;4367714;32;20206;-71
2021/01/06 07:19:48;;;;;;;26.70;13.00;;;2.30;99.90;;;;;;4367960;32;20206;-70
2021/01/06 07:22:18;;;;;;;24.93;13.03;;;2.30;99.90;;;;;;4367645;32;20170;-70
2021/01/06 07:24:54;;;;;;;26.47;12.83;;;2.30;99.90;;;;;;4374877;32;20179;-71
2021/01/06 07:27:21;;;;;;;26.43;12.83;;;2.30;99.90;;;;;;4367941;32;20156;-71
2021/01/06 07:29:50;;;;;;;31.63;14.30;;;2.30;99.90;;;;;;4362362;32;20437;-74
2021/01/06 07:32:18;;;;;;;26.87;13.33;;;2.30;99.90;;;;;;4356538;33;20182;-70
2021/01/06 07:34:52;;;;;;;26.63;13.07;;;2.30;99.90;;;;;;4367849;32;20175;-72
2021/01/06 07:37:35;;;;;;;28.63;12.70;;;2.30;99.90;;;;;;4367725;32;20140;-72
2021/01/06 07:40:21;;;;;;;27.43;13.50;;;2.30;99.90;;;;;;4370092;32;20163;-71
2021/01/06 07:42:51;;;;;;;28.87;13.30;;;2.40;99.90;;;;;;4373843;32;20170;-72
2021/01/06 07:45:20;;;;;;;26.70;13.23;;;2.50;99.90;;;;;;4372621;32;20290;-72
2021/01/06 07:48:04;;;;;;;30.40;13.97;;;2.40;99.90;;;;;;4374861;32;20575;-71
2021/01/06 07:50:34;;;;;;;27.67;13.63;;;2.40;99.90;;;;;;4381691;32;20178;-71
2021/01/06 07:53:11;;;;;;;28.53;13.70;;;2.50;99.90;;;;;;4381360;32;20188;-71
2021/01/06 07:55:51;;;;;;;26.53;13.50;;;2.50;99.90;;;;;;4382715;32;20144;-71
2021/01/06 07:58:41;;;;;;;27.70;13.47;;;2.40;99.90;;;;;;4382130;32;20136;-72
2021/01/06 08:01:13;;;;;;;29.70;13.67;;;2.40;99.90;;;;;;4382743;32;20186;-71
2021/01/06 08:03:59;;;;;;;31.70;13.83;;;2.40;99.90;;;;;;4382052;32;20182;-72
2021/01/06 08:06:40;;;;;;;31.37;13.70;;;2.50;99.90;;;;;;4382976;32;20190;-72
2021/01/06 08:09:07;;;;;;;28.63;13.63;;;2.50;99.90;;;;;;4381010;32;20152;-72
2021/01/06 08:11:45;;;;;;;28.60;13.07;;;2.60;99.90;;;;;;4381457;32;20190;-74
2021/01/06 08:14:22;;;;;;;27.83;13.10;;;2.60;99.90;;;;;;4381000;32;20132;-71
2021/01/06 08:17:05;;;;;;;27.07;13.03;;;2.70;99.90;;;;;;4381893;32;20158;-71
2021/01/06 08:19:40;;;;;;;27.20;13.40;;;2.70;99.90;;;;;;4381177;32;20434;-72
2021/01/06 08:22:09;;;;;;;26.03;12.70;;;2.70;99.90;;;;;;4380348;32;20159;-72
2021/01/06 08:24:49;;;;;;;26.50;13.03;;;2.70;99.90;;;;;;4380588;32;20170;-72
2021/01/06 08:27:27;;;;;;;25.20;12.93;;;2.50;99.90;;;;;;4380680;32;20195;-72
2021/01/06 08:30:29;;;;;;;26.87;13.37;;;2.60;99.90;;;;;;4380728;32;20139;-72
2021/01/06 08:33:04;;;;;;;23.63;12.60;;;2.70;99.90;;;;;;4319799;33;20144;-73
2021/01/06 08:35:33;;;;;;;26.43;12.97;;;2.70;99.90;;;;;;4319474;33;20183;-73
2021/01/06 08:38:00;;;;;;;26.23;13.33;;;2.80;99.90;;;;;;4319891;33;20256;-73
2021/01/06 08:40:29;;;;;;;27.23;13.03;;;2.80;99.90;;;;;;4319279;33;20386;-72
2021/01/06 08:43:01;;;;;;;26.23;12.87;;;2.70;99.90;;;;;;4319170;33;20208;-72
2021/01/06 08:45:35;;;;;;;26.83;13.07;;;2.80;99.90;;;;;;4319049;33;20220;-73
2021/01/06 08:48:24;;;;;;;26.67;13.50;;;2.80;99.90;;;;;;4315072;33;20204;-73
2021/01/06 08:50:52;;;;;;;26.17;13.20;;;2.80;99.90;;;;;;4309427;33;20257;-73
2021/01/06 08:53:33;;;;;;;24.63;12.43;;;2.90;99.90;;;;;;4310433;33;20175;-72
2021/01/06 08:56:04;;;;;;;26.60;12.57;;;2.80;99.90;;;;;;4307703;33;20149;-72
2021/01/06 08:58:46;;;;;;;27.57;12.80;;;2.80;99.90;;;;;;4295175;33;20192;-72
2021/01/06 09:01:32;;;;;;;24.67;12.57;;;2.90;99.90;;;;;;4290868;33;20158;-72
2021/01/06 09:04:02;;;;;;;26.53;13.43;;;2.90;99.90;;;;;;4298336;33;20216;-76
2021/01/06 09:06:29;;;;;;;24.43;12.27;;;2.90;99.90;;;;;;4322194;33;20182;-73
2021/01/06 09:09:04;;;;;;;24.30;12.40;;;2.80;99.90;;;;;;4352419;32;20572;-73
2021/01/06 09:11:53;;;;;;;25.37;13.07;;;2.70;99.90;;;;;;4350497;33;20195;-72
2021/01/06 09:14:31;;;;;;;27.53;12.93;;;2.80;99.90;;;;;;4350721;33;20322;-72
2021/01/06 09:17:16;;;;;;;24.57;12.43;;;2.90;99.90;;;;;;4354188;32;20178;-73
2021/01/06 09:19:52;;;;;;;24.57;12.43;;;3.00;99.90;;;;;;4366615;32;20136;-72
2021/01/06 09:22:18;;;;;;;27.07;12.83;;;3.10;99.90;;;;;;4365782;32;20135;-72
2021/01/06 09:24:46;;;;;;;29.37;13.83;;;3.10;99.90;;;;;;4365214;32;20171;-71
2021/01/06 09:27:24;;;;;;;24.07;12.20;;;3.10;99.90;;;;;;4363193;32;20198;-72
2021/01/06 09:29:53;;;;;;;28.23;13.37;;;3.10;99.90;;;;;;4350226;33;20167;-72
2021/01/06 09:32:24;;;;;;;24.90;12.70;;;3.20;99.90;;;;;;4349964;33;20165;-72
2021/01/06 09:34:57;;;;;;;24.40;12.37;;;3.20;99.90;;;;;;4350039;33;20222;-72
2021/01/06 09:37:29;;;;;;;24.30;12.50;;;3.10;99.90;;;;;;4351494;33;20151;-72
2021/01/06 09:40:03;;;;;;;23.90;12.50;;;3.10;99.90;;;;;;4350051;33;20136;-72
2021/01/06 09:42:31;;;;;;;25.97;13.10;;;3.00;99.90;;;;;;4370002;32;20187;-72
2021/01/06 09:44:57;;;;;;;26.37;13.23;;;3.00;99.90;;;;;;4372049;32;20442;-73
2021/01/06 09:47:33;;;;;;;27.33;13.87;;;3.00;99.90;;;;;;4373503;32;20148;-73
2021/01/06 09:50:23;;;;;;;25.73;12.80;;;3.10;99.90;;;;;;4371019;32;21246;-73
2021/01/06 09:52:52;;;;;;;24.03;12.60;;;3.20;99.90;;;;;;4379257;32;20156;-74
2021/01/06 09:55:22;;;;;;;25.33;12.07;;;3.10;99.90;;;;;;4373272;32;20165;-73
2021/01/06 09:58:22;;;;;;;27.20;13.53;;;3.10;99.90;;;;;;4365164;32;20187;-74
2021/01/06 10:01:04;;;;;;;26.37;13.23;;;3.10;99.90;;;;;;4304164;33;20423;-74
2021/01/06 10:03:36;;;;;;;28.17;13.80;;;3.20;99.90;;;;;;4304496;33;20188;-75
2021/01/06 10:06:46;;;;;;;24.97;12.90;;;3.20;99.90;;;;;;4311170;33;20417;-73
2021/01/06 10:09:18;;;;;;;26.03;12.77;;;3.30;99.90;;;;;;4264906;33;20200;-74
2021/01/06 10:11:56;;;;;;;26.90;13.20;;;3.30;99.90;;;;;;4260373;33;20390;-75
2021/01/06 10:14:32;;;;;;;25.03;13.10;;;3.30;99.90;;;;;;4246300;33;20154;-75
2021/01/06 10:17:09;;;;;;;27.67;12.83;;;3.30;99.90;;;;;;4246189;33;20176;-75
2021/01/06 10:19:54;;;;;;;24.33;13.03;;;3.20;99.90;;;;;;4247457;33;20235;-69
2021/01/06 10:22:43;;;;;;;23.90;12.23;;;3.20;99.90;;;;;;4246205;33;20174;-72
2021/01/06 10:25:39;;;;;;;25.27;12.93;;;3.30;99.90;;;;;;4246462;33;20186;-70
2021/01/06 10:28:11;;;;;;;24.93;12.83;;;3.40;99.90;;;;;;4244697;33;20182;-70
2021/01/06 10:30:38;;;;;;;25.47;12.70;;;3.50;99.90;;;;;;4244866;33;20234;-70
2021/01/06 10:33:09;;;;;;;24.70;12.87;;;3.50;99.90;;;;;;4245204;33;20155;-70
2021/01/06 10:36:27;;;;;;;22.30;12.57;;;3.40;99.90;;;;;;4246102;33;20166;-70
2021/01/06 10:38:54;;;;;;;22.83;11.57;;;3.40;99.90;;;;;;4230153;34;20193;-71
2021/01/06 10:41:24;;;;;;;21.70;11.37;;;3.30;99.90;;;;;;4247346;33;20633;-71
2021/01/06 10:43:55;;;;;;;23.17;11.93;;;3.30;99.90;;;;;;4266673;33;20241;-70
2021/01/06 10:46:55;;;;;;;23.50;12.20;;;3.30;99.90;;;;;;4274113;33;20217;-71
2021/01/06 10:49:22;;;;;;;22.60;11.67;;;3.20;99.90;;;;;;4245990;33;22337;-71
2021/01/06 10:51:59;;;;;;;26.63;12.50;;;3.30;99.90;;;;;;4246530;33;20207;-70
2021/01/06 10:54:39;;;;;;;26.70;12.43;;;3.20;99.90;;;;;;4245332;33;20493;-70
2021/01/06 10:57:45;;;;;;;24.37;12.20;;;3.30;99.90;;;;;;4245780;33;20525;-70
2021/01/06 11:00:15;;;;;;;24.13;11.90;;;3.30;99.90;;;;;;4246484;33;20552;-71
2021/01/06 11:03:11;;;;;;;26.83;12.70;;;3.20;99.90;;;;;;4246428;33;20159;-70
2021/01/06 11:05:52;;;;;;;23.00;12.20;;;3.30;99.90;;;;;;4231930;34;20534;-71
2021/01/06 11:08:36;;;;;;;22.07;11.70;;;3.40;99.90;;;;;;4231329;34;20274;-71
2021/01/06 11:11:42;;;;;;;25.13;11.37;;;3.40;99.90;;;;;;4235116;33;20173;-70
2021/01/06 11:14:15;;;;;;;25.47;12.10;;;3.50;99.90;;;;;;4237598;33;20590;-72
2021/01/06 11:17:13;;;;;;;20.87;11.37;;;3.40;99.90;;;;;;4259717;33;20154;-72
2021/01/06 11:19:48;;;;;;;23.90;11.90;;;3.50;99.90;;;;;;4260444;33;20154;-73
2021/01/06 11:22:34;;;;;;;21.97;11.70;;;3.50;99.90;;;;;;4259637;33;20154;-73
2021/01/06 11:25:23;;;;;;;21.03;11.67;;;3.50;99.90;;;;;;4268040;33;20185;-74
2021/01/06 11:27:49;;;;;;;23.03;12.10;;;3.60;99.90;;;;;;4275253;33;20146;-73
2021/01/06 11:30:34;;;;;;;23.80;12.20;;;3.60;99.90;;;;;;4274023;33;20466;-72
2021/01/06 11:33:28;;;;;;;20.93;11.40;;;3.60;99.90;;;;;;4273974;33;20252;-73
2021/01/06 11:35:58;;;;;;;25.83;11.47;;;3.50;99.90;;;;;;4275095;33;20580;-72
2021/01/06 11:38:47;;;;;;;23.13;11.37;;;3.50;99.90;;;;;;4274847;33;20185;-72
2021/01/06 11:41:27;;;;;;;20.73;11.20;;;3.50;99.90;;;;;;4273932;33;20177;-72
2021/01/06 11:44:28;;;;;;;22.73;11.07;;;3.50;99.90;;;;;;4273499;33;20170;-70
2021/01/06 11:47:26;;;;;;;20.83;10.80;;;3.50;99.90;;;;;;4286435;33;20213;-71
2021/01/06 11:50:02;;;;;;;21.97;11.10;;;3.50;99.90;;;;;;4250121;33;20223;-73
2021/01/06 11:52:48;;;;;;;20.07;11.10;;;3.60;99.90;;;;;;4331468;33;20220;-72
2021/01/06 11:55:41;;;;;;;22.30;11.07;;;3.70;99.90;;;;;;4317841;33;20149;-71
2021/01/06 11:58:18;;;;;;;21.97;11.00;;;3.70;99.90;;;;;;4308390;33;20165;-69
2021/01/06 12:01:14;;;;;;;20.93;10.67;;;3.70;99.90;;;;;;4320371;33;20144;-70
2021/01/06 12:03:58;;;;;;;19.30;9.67;;;3.70;99.90;;;;;;4276670;33;20206;-71
2021/01/06 12:06:41;;;;;;;20.37;10.50;;;3.60;99.90;;;;;;4275640;33;20161;-68
2021/01/06 12:09:16;;;;;;;20.07;11.00;;;3.70;99.90;;;;;;4275783;33;20441;-70
2021/01/06 12:12:13;;;;;;;21.73;11.00;;;3.70;99.90;;;;;;4276826;33;20242;-71
2021/01/06 12:15:06;;;;;;;22.23;11.33;;;3.70;99.90;;;;;;4276352;33;20205;-70
2021/01/06 12:17:38;;;;;;;23.20;11.63;;;3.70;99.90;;;;;;4275970;33;20482;-75
2021/01/06 12:20:26;;;;;;;21.87;12.10;;;3.80;99.90;;;;;;4277224;33;20158;-73
2021/01/06 12:23:14;;;;;;;24.10;11.47;;;3.80;99.90;;;;;;4276396;33;20191;-75
2021/01/06 12:25:49;;;;;;;20.33;10.57;;;3.80;99.90;;;;;;4282505;33;20212;-74
2021/01/06 12:28:42;;;;;;;19.77;10.27;;;3.70;99.90;;;;;;4319136;33;20471;-72
2021/01/06 12:31:20;;;;;;;20.97;11.20;;;3.80;99.90;;;;;;4319342;33;20287;-75
2021/01/06 12:34:10;;;;;;;21.97;11.17;;;3.80;99.90;;;;;;4320271;33;20352;-75
2021/01/06 12:37:11;;;;;;;21.43;11.53;;;3.80;99.90;;;;;;4319071;33;20183;-74
2021/01/06 12:40:01;;;;;;;21.43;11.33;;;3.90;99.90;;;;;;4333114;33;20503;-73
2021/01/06 12:42:35;;;;;;;24.93;11.67;;;3.80;99.90;;;;;;4366204;32;20402;-75
2021/01/06 12:45:13;;;;;;;21.63;10.90;;;3.80;99.90;;;;;;4364903;32;20490;-76
2021/01/06 12:48:04;;;;;;;22.83;11.17;;;3.70;99.90;;;;;;4365404;32;20159;-74
2021/01/06 12:50:40;;;;;;;22.63;10.73;;;3.80;99.90;;;;;;4360056;32;20544;-76
2021/01/06 12:53:16;;;;;;;20.47;10.57;;;3.80;99.90;;;;;;4352618;32;20164;-75
2021/01/06 12:55:54;;;;;;;21.33;11.13;;;3.80;99.90;;;;;;4350316;33;20211;-72
2021/01/06 12:58:45;;;;;;;23.83;11.80;;;3.90;99.90;;;;;;4349236;33;20187;-76
2021/01/06 13:01:25;;;;;;;23.30;11.83;;;3.90;99.90;;;;;;4349206;33;20137;-74
2021/01/06 13:04:03;;;;;;;20.83;10.83;;;3.90;99.90;;;;;;4350498;33;20171;-74
2021/01/06 13:06:55;;;;;;;22.40;11.80;;;3.90;99.90;;;;;;4350411;33;20406;-74
2021/01/06 13:09:33;;;;;;;22.70;12.13;;;4.00;99.90;;;;;;4350165;33;20566;-76
2021/01/06 13:12:09;;;;;;;25.40;12.93;;;4.00;99.90;;;;;;4337362;33;20198;-75
2021/01/06 13:14:52;;;;;;;22.17;12.10;;;3.80;99.90;;;;;;4350305;33;20408;-74
2021/01/06 13:17:33;;;;;;;24.23;12.23;;;3.80;99.90;;;;;;4349843;32;20159;-73
2021/01/06 13:20:33;;;;;;;25.40;12.87;;;3.90;99.90;;;;;;4351149;33;20180;-73
2021/01/06 13:23:25;;;;;;;24.90;11.67;;;3.90;99.90;;;;;;4357114;32;20152;-73
2021/01/06 13:26:15;;;;;;;26.47;12.50;;;3.80;99.90;;;;;;4350501;33;20200;-74
2021/01/06 13:28:57;;;;;;;26.33;13.40;;;3.80;99.90;;;;;;4350978;33;20405;-74
2021/01/06 13:31:32;;;;;;;25.10;13.23;;;3.70;99.90;;;;;;4350436;33;20144;-74